createdAt,value
2022-08-11T00:00:36.623Z,15.66
2022-08-11T00:03:23.957Z,15.62
2022-08-11T00:06:34.880Z,15.60
2022-08-11T00:09:38.908Z,15.49
2022-08-11T00:12:27.168Z,15.43
2022-08-11T00:15:14.270Z,15.44
2022-08-11T00:18:02.264Z,15.43
2022-08-11T00:20:49.788Z,15.38
2022-08-11T00:23:43.631Z,15.41
2022-08-11T00:26:31.520Z,15.40
2022-08-11T00:29:19.398Z,15.35
2022-08-11T00:32:08.949Z,15.23
2022-08-11T00:35:51.648Z,15.25
2022-08-11T00:38:04.678Z,15.09
2022-08-11T00:41:00.769Z,15.02
2022-08-11T00:44:00.898Z,14.91
2022-08-11T00:47:04.197Z,14.85
2022-08-11T00:50:03.701Z,14.79
2022-08-11T00:53:26.536Z,14.77
2022-08-11T00:56:40.078Z,14.71
2022-08-11T01:00:15.682Z,14.67
2022-08-11T01:03:26.235Z,14.60
2022-08-11T01:06:46.853Z,14.51
2022-08-11T01:09:48.727Z,14.39
2022-08-11T01:12:50.952Z,14.29
2022-08-11T01:16:09.564Z,14.22
2022-08-11T01:19:31.743Z,14.23
2022-08-11T01:22:36.868Z,14.12
2022-08-11T01:25:56.656Z,14.09
2022-08-11T01:29:21.086Z,14.03
2022-08-11T01:32:45.944Z,13.83
2022-08-11T01:35:53.303Z,13.79
2022-08-11T01:39:18.992Z,13.73
2022-08-11T01:42:54.966Z,13.63
2022-08-11T01:45:49.947Z,13.58
2022-08-11T01:48:43.776Z,13.71
2022-08-11T01:51:46.959Z,13.64
2022-08-11T01:54:42.183Z,13.60
2022-08-11T01:57:38.716Z,13.56
2022-08-11T02:00:30.891Z,13.57
2022-08-11T02:03:29.867Z,13.48
2022-08-11T02:06:48.691Z,13.40
2022-08-11T02:10:02.334Z,13.34
2022-08-11T02:12:52.894Z,13.32
2022-08-11T02:15:46.994Z,13.27
2022-08-11T02:18:51.760Z,13.18
2022-08-11T02:22:06.963Z,13.14
2022-08-11T02:25:03.077Z,13.09
2022-08-11T02:27:56.622Z,13.03
2022-08-11T02:32:14.567Z,12.97
2022-08-11T02:34:37.369Z,12.94
2022-08-11T02:37:35.846Z,12.94
2022-08-11T02:40:44.856Z,12.87
2022-08-11T02:43:48.045Z,12.77
2022-08-11T02:46:51.358Z,12.71
2022-08-11T02:50:06.927Z,12.69
2022-08-11T02:52:59.878Z,12.60
2022-08-11T02:55:59.039Z,12.57
2022-08-11T02:59:12.965Z,12.52
2022-08-11T03:02:05.361Z,12.50
2022-08-11T03:05:06.847Z,12.49
2022-08-11T03:08:09.731Z,12.43
2022-08-11T03:11:23.555Z,12.48
2022-08-11T03:14:42.305Z,12.51
2022-08-11T03:17:34.341Z,12.48
2022-08-11T03:20:38.277Z,12.38
2022-08-11T03:23:32.201Z,12.27
2022-08-11T03:26:31.972Z,12.22
2022-08-11T03:29:29.600Z,12.18
2022-08-11T03:32:29.237Z,12.20
2022-08-11T03:35:21.525Z,12.15
2022-08-11T03:38:13.931Z,12.14
2022-08-11T03:42:01.128Z,12.10
2022-08-11T03:45:03.383Z,12.07
2022-08-11T03:48:02.039Z,12.08
2022-08-11T03:50:59.061Z,12.05
2022-08-11T03:53:57.833Z,12.03
2022-08-11T03:57:31.535Z,12.00
2022-08-11T04:00:51.959Z,11.92
2022-08-11T04:04:25.565Z,11.93
2022-08-11T04:08:02.099Z,11.97
2022-08-11T04:11:15.509Z,12.03
2022-08-11T04:14:45.305Z,12.02
2022-08-11T04:17:54.382Z,12.08
2022-08-11T04:21:07.202Z,12.09
2022-08-11T04:24:39.773Z,12.12
2022-08-11T04:27:48.588Z,12.19
2022-08-11T04:30:57.339Z,12.30
2022-08-11T04:34:06.839Z,12.52
2022-08-11T04:37:34.635Z,12.89
2022-08-11T04:40:50.839Z,13.18
2022-08-11T04:44:16.696Z,13.44
2022-08-11T04:48:03.474Z,13.63
2022-08-11T04:51:26.189Z,13.55
2022-08-11T04:54:45.919Z,13.61
2022-08-11T04:57:59.959Z,13.77
2022-08-11T05:01:15.510Z,13.86
2022-08-11T05:04:40.139Z,13.93
2022-08-11T05:08:06.080Z,13.96
2022-08-11T05:11:08.310Z,14.68
2022-08-11T05:14:40.115Z,15.58
2022-08-11T05:17:55.254Z,16.31
2022-08-11T05:21:09.378Z,16.90
2022-08-11T05:24:30.472Z,17.01
2022-08-11T05:27:38.601Z,17.07
2022-08-11T05:30:47.752Z,17.23
2022-08-11T05:34:04.104Z,17.17
2022-08-11T05:37:11.591Z,17.28
2022-08-11T05:40:28.005Z,17.27
2022-08-11T05:43:34.354Z,17.41
2022-08-11T05:46:40.105Z,17.56
2022-08-11T05:49:49.734Z,17.75
2022-08-11T05:52:57.499Z,17.86
2022-08-11T05:56:04.400Z,17.93
2022-08-11T05:58:52.996Z,18.13
2022-08-11T06:01:40.477Z,18.39
2022-08-11T06:04:30.871Z,18.55
2022-08-11T06:07:18.033Z,18.46
2022-08-11T06:10:05.434Z,18.59
2022-08-11T06:12:55.952Z,18.50
2022-08-11T06:15:47.450Z,18.64
2022-08-11T06:18:35.152Z,18.68
2022-08-11T06:21:23.277Z,18.51
2022-08-11T06:24:13.697Z,18.57
2022-08-11T06:27:12.178Z,18.91
2022-08-11T06:30:03.234Z,19.11
2022-08-11T06:32:55.573Z,19.19
2022-08-11T06:35:52.854Z,19.53
2022-08-11T06:38:57.979Z,19.59
2022-08-11T06:41:50.766Z,19.68
2022-08-11T06:44:43.297Z,19.75
2022-08-11T06:47:31.593Z,19.80
2022-08-11T06:50:37.517Z,19.98
2022-08-11T06:53:24.699Z,20.05
2022-08-11T06:56:30.355Z,20.14
2022-08-11T06:59:36.621Z,20.41
2022-08-11T07:02:33.879Z,20.53
2022-08-11T07:05:28.788Z,20.84
2022-08-11T07:09:04.823Z,21.05
2022-08-11T07:12:26.786Z,21.17
2022-08-11T07:16:10.693Z,21.25
2022-08-11T07:18:57.693Z,21.72
2022-08-11T07:22:05.744Z,22.02
2022-08-11T07:25:16.108Z,22.08
2022-08-11T07:28:22.709Z,22.59
2022-08-11T07:31:17.046Z,22.84
2022-08-11T07:34:17.591Z,22.78
2022-08-11T07:37:12.739Z,22.99
2022-08-11T07:40:01.792Z,23.16
2022-08-11T07:42:49.223Z,23.29
2022-08-11T07:45:53.919Z,23.36
2022-08-11T07:49:01.074Z,23.48
2022-08-11T07:52:07.397Z,23.64
2022-08-11T07:54:57.345Z,23.79
2022-08-11T07:58:16.371Z,23.87
2022-08-11T08:01:25.282Z,23.82
2022-08-11T08:04:33.636Z,23.81
2022-08-11T08:07:40.221Z,23.91
2022-08-11T08:10:47.426Z,24.24
2022-08-11T08:13:54.234Z,24.23
2022-08-11T08:17:01.228Z,24.31
2022-08-11T08:19:51.104Z,24.40
2022-08-11T08:22:43.885Z,24.55
2022-08-11T08:25:38.539Z,24.74
2022-08-11T08:28:30.300Z,24.78
2022-08-11T08:31:20.404Z,24.94
2022-08-11T08:34:08.705Z,25.10
2022-08-11T08:36:57.245Z,25.29
2022-08-11T08:39:48.263Z,25.39
2022-08-11T08:42:45.282Z,25.61
2022-08-11T08:45:37.835Z,25.69
2022-08-11T08:48:28.592Z,25.89
2022-08-11T08:52:01.121Z,26.04
2022-08-11T08:54:44.951Z,26.23
2022-08-11T08:57:39.462Z,26.35
2022-08-11T09:00:40.841Z,26.52
2022-08-11T09:04:05.217Z,26.51
2022-08-11T09:06:35.749Z,26.60
2022-08-11T09:09:23.429Z,26.62
2022-08-11T09:12:11.680Z,26.62
2022-08-11T09:15:03.710Z,26.74
2022-08-11T09:18:03.758Z,26.78
2022-08-11T09:20:50.727Z,26.95
2022-08-11T09:24:07.808Z,27.02
2022-08-11T09:27:03.060Z,27.13
2022-08-11T09:29:50.350Z,27.29
2022-08-11T09:32:37.620Z,27.55
2022-08-11T09:35:27.042Z,27.63
2022-08-11T09:38:33.495Z,27.57
2022-08-11T09:41:20.364Z,27.48
2022-08-11T09:44:30.669Z,27.43
2022-08-11T09:47:25.415Z,27.04
2022-08-11T09:50:13.624Z,26.62
2022-08-11T09:53:35.923Z,26.68
2022-08-11T09:56:34.429Z,27.16
2022-08-11T09:59:24.142Z,27.21
2022-08-11T10:02:12.081Z,27.49
2022-08-11T10:05:20.620Z,27.64
2022-08-11T10:08:12.022Z,27.78
2022-08-11T10:11:01.093Z,27.78
2022-08-11T10:14:32.105Z,27.82
2022-08-11T10:17:14.502Z,28.15
2022-08-11T10:20:05.874Z,28.09
2022-08-11T10:23:10.871Z,28.14
2022-08-11T10:26:17.160Z,28.29
2022-08-11T10:29:26.749Z,28.06
2022-08-11T10:32:57.706Z,28.05
2022-08-11T10:35:46.825Z,28.16
2022-08-11T10:38:34.212Z,27.85
2022-08-11T10:42:01.836Z,27.81
2022-08-11T10:44:49.237Z,28.04
2022-08-11T10:47:35.028Z,28.06
2022-08-11T10:50:39.703Z,28.10
2022-08-11T10:53:44.173Z,27.90
2022-08-11T10:56:54.582Z,27.94
2022-08-11T10:59:42.923Z,28.15
2022-08-11T11:02:30.726Z,28.21
2022-08-11T11:05:26.071Z,27.61
2022-08-11T11:08:29.395Z,27.90
2022-08-11T11:11:19.322Z,27.79
2022-08-11T11:14:46.756Z,27.74
2022-08-11T11:18:01.676Z,27.89
2022-08-11T11:20:53.161Z,27.92
2022-08-11T11:23:47.603Z,28.22
2022-08-11T11:26:44.576Z,28.21
2022-08-11T11:29:54.749Z,28.12
2022-08-11T11:32:50.046Z,28.23
2022-08-11T11:35:54.026Z,28.38
2022-08-11T11:38:42.419Z,28.26
2022-08-11T11:41:30.133Z,28.11
2022-08-11T11:44:17.182Z,28.23
2022-08-11T11:47:07.541Z,28.23
2022-08-11T11:49:54.728Z,28.30
2022-08-11T11:52:42.294Z,28.53
2022-08-11T11:55:30.692Z,28.18
2022-08-11T11:58:36.784Z,27.99
2022-08-11T12:01:25.718Z,28.11
2022-08-11T12:04:16.565Z,28.29
2022-08-11T12:07:17.840Z,28.40
2022-08-11T12:10:09.829Z,28.58
2022-08-11T12:13:17.301Z,28.52
2022-08-11T12:16:33.300Z,28.45
2022-08-11T12:19:16.581Z,28.45
2022-08-11T12:22:20.969Z,28.29
2022-08-11T12:25:37.968Z,28.25
2022-08-11T12:28:25.494Z,28.48
2022-08-11T12:31:16.184Z,28.59
2022-08-11T12:34:04.317Z,28.84
2022-08-11T12:36:56.320Z,29.02
2022-08-11T12:40:12.930Z,29.26
2022-08-11T12:43:37.986Z,29.20
2022-08-11T12:46:32.823Z,29.13
2022-08-11T12:49:45.220Z,28.99
2022-08-11T12:52:36.995Z,28.93
2022-08-11T12:55:40.361Z,29.15
2022-08-11T12:58:28.953Z,29.01
2022-08-11T13:01:33.577Z,28.98
2022-08-11T13:04:38.226Z,28.95
2022-08-11T13:07:26.576Z,28.96
2022-08-11T13:10:52.817Z,29.12
2022-08-11T13:13:54.214Z,29.11
2022-08-11T13:17:18.105Z,29.21
2022-08-11T13:20:06.407Z,29.15
2022-08-11T13:22:55.603Z,29.20
2022-08-11T13:25:44.411Z,29.29
2022-08-11T13:28:34.416Z,29.15
2022-08-11T13:31:21.753Z,29.06
2022-08-11T13:34:09.399Z,29.08
2022-08-11T13:37:00.521Z,29.19
2022-08-11T13:39:48.168Z,29.23
2022-08-11T13:42:37.601Z,29.18
2022-08-11T13:45:25.653Z,29.08
2022-08-11T13:48:13.920Z,28.96
2022-08-11T13:51:17.990Z,28.95
2022-08-11T13:54:07.643Z,28.99
2022-08-11T13:56:58.220Z,29.07
2022-08-11T13:59:52.510Z,29.13
2022-08-11T14:02:43.538Z,29.05
2022-08-11T14:05:35.488Z,29.03
2022-08-11T14:08:38.466Z,29.00
2022-08-11T14:12:23.262Z,29.06
2022-08-11T14:15:07.622Z,29.12
2022-08-11T14:18:01.813Z,29.16
2022-08-11T14:21:10.955Z,29.08
2022-08-11T14:24:01.257Z,29.25
2022-08-11T14:26:49.295Z,29.05
2022-08-11T14:29:45.203Z,29.04
2022-08-11T14:32:52.732Z,29.13
2022-08-11T14:35:40.056Z,29.02
2022-08-11T14:38:31.531Z,29.15
2022-08-11T14:41:37.251Z,29.21
2022-08-11T14:45:04.048Z,29.21
2022-08-11T14:47:59.979Z,29.32
2022-08-11T14:50:49.109Z,29.03
2022-08-11T14:53:41.371Z,29.02
2022-08-11T14:56:46.389Z,29.07
2022-08-11T14:59:35.138Z,29.03
2022-08-11T15:02:40.606Z,29.14
2022-08-11T15:05:30.827Z,28.90
2022-08-11T15:08:28.227Z,28.90
2022-08-11T15:11:41.500Z,28.83
2022-08-11T15:14:58.258Z,28.90
2022-08-11T15:17:48.756Z,29.06
2022-08-11T15:20:56.039Z,28.98
2022-08-11T15:24:00.693Z,28.99
2022-08-11T15:27:07.811Z,28.94
2022-08-11T15:30:32.557Z,29.00
2022-08-11T15:33:39.642Z,28.70
2022-08-11T15:36:47.781Z,28.68
2022-08-11T15:40:02.503Z,28.69
2022-08-11T15:43:15.857Z,28.79
2022-08-11T15:46:08.328Z,28.83
2022-08-11T15:49:00.577Z,28.82
2022-08-11T15:52:00.340Z,28.88
2022-08-11T15:54:50.274Z,28.87
2022-08-11T15:58:02.016Z,28.71
2022-08-11T16:01:09.478Z,28.77
2022-08-11T16:04:13.901Z,28.68
2022-08-11T16:07:06.589Z,28.70
2022-08-11T16:10:00.463Z,28.51
2022-08-11T16:13:22.590Z,28.68
2022-08-11T16:16:15.558Z,28.61
2022-08-11T16:19:04.964Z,28.65
2022-08-11T16:21:54.332Z,28.60
2022-08-11T16:27:05.339Z,28.57
2022-08-11T16:28:00.459Z,28.45
2022-08-11T16:30:50.457Z,28.23
2022-08-11T16:33:49.765Z,28.16
2022-08-11T16:36:55.300Z,28.05
2022-08-11T16:39:44.596Z,27.99
2022-08-11T16:43:04.401Z,27.80
2022-08-11T16:46:16.839Z,27.83
2022-08-11T16:49:07.387Z,27.77
2022-08-11T16:51:54.189Z,27.81
2022-08-11T16:54:44.527Z,27.93
2022-08-11T16:57:51.601Z,27.82
2022-08-11T17:00:41.521Z,27.67
2022-08-11T17:03:45.471Z,27.58
2022-08-11T17:06:51.838Z,27.50
2022-08-11T17:09:57.093Z,27.52
2022-08-11T17:13:07.620Z,27.39
2022-08-11T17:16:12.269Z,27.13
2022-08-11T17:19:02.498Z,26.89
2022-08-11T17:22:14.090Z,26.54
2022-08-11T17:25:02.464Z,26.44
2022-08-11T17:27:53.702Z,26.19
2022-08-11T17:31:01.481Z,26.14
2022-08-11T17:34:19.352Z,25.76
2022-08-11T17:37:06.308Z,25.66
2022-08-11T17:39:54.986Z,25.38
2022-08-11T17:43:02.390Z,25.17
2022-08-11T17:46:08.437Z,25.02
2022-08-11T17:48:55.493Z,24.76
2022-08-11T17:52:03.332Z,24.63
2022-08-11T17:55:10.572Z,24.35
2022-08-11T17:58:19.616Z,24.29
2022-08-11T18:01:10.061Z,24.10
2022-08-11T18:03:58.811Z,24.00
2022-08-11T18:06:48.267Z,23.88
2022-08-11T18:09:52.852Z,23.73
2022-08-11T18:12:57.569Z,23.62
2022-08-11T18:16:02.745Z,23.49
2022-08-11T18:19:09.775Z,23.35
2022-08-11T18:22:22.559Z,23.17
2022-08-11T18:25:31.963Z,23.03
2022-08-11T18:28:42.203Z,22.86
2022-08-11T18:31:47.693Z,22.73
2022-08-11T18:34:59.020Z,22.55
2022-08-11T18:38:07.468Z,22.44
2022-08-11T18:41:12.560Z,22.32
2022-08-11T18:44:24.497Z,22.06
2022-08-11T18:47:31.544Z,22.02
2022-08-11T18:50:39.941Z,21.89
2022-08-11T18:53:47.883Z,21.78
2022-08-11T18:56:53.531Z,21.69
2022-08-11T19:00:00.633Z,21.58
2022-08-11T19:03:06.864Z,21.60
2022-08-11T19:06:38.234Z,21.53
2022-08-11T19:09:39.297Z,21.44
2022-08-11T19:12:47.255Z,21.46
2022-08-11T19:15:54.360Z,21.34
2022-08-11T19:19:00.361Z,21.31
2022-08-11T19:22:07.602Z,21.21
2022-08-11T19:25:14.291Z,21.07
2022-08-11T19:28:20.323Z,21.01
2022-08-11T19:31:27.573Z,20.91
2022-08-11T19:34:34.798Z,20.80
2022-08-11T19:37:44.441Z,20.71
2022-08-11T19:40:49.624Z,20.63
2022-08-11T19:43:56.777Z,20.54
2022-08-11T19:47:02.672Z,20.44
2022-08-11T19:50:13.141Z,20.38
2022-08-11T19:53:19.279Z,20.27
2022-08-11T19:56:24.953Z,20.18
2022-08-11T19:59:30.309Z,20.08
2022-08-11T20:02:35.588Z,20.06
2022-08-11T20:05:40.416Z,19.95
2022-08-11T20:09:07.826Z,19.84
2022-08-11T20:12:15.264Z,19.74
2022-08-11T20:15:22.506Z,19.67
2022-08-11T20:18:29.657Z,19.60
2022-08-11T20:21:34.907Z,19.53
2022-08-11T20:24:41.712Z,19.49
2022-08-11T20:27:46.252Z,19.43
2022-08-11T20:30:51.853Z,19.44
2022-08-11T20:33:58.576Z,19.48
2022-08-11T20:37:05.152Z,19.50
2022-08-11T20:40:13.213Z,19.45
2022-08-11T20:44:07.533Z,19.38
2022-08-11T20:46:44.319Z,19.39
2022-08-11T20:49:56.665Z,19.27
2022-08-11T20:53:02.544Z,19.18
2022-08-11T20:56:09.916Z,19.09
2022-08-11T20:59:18.929Z,18.97
2022-08-11T21:02:29.948Z,18.84
2022-08-11T21:06:09.032Z,18.80
2022-08-11T21:09:01.591Z,18.70
2022-08-11T21:12:09.741Z,18.64
2022-08-11T21:15:30.796Z,18.53
2022-08-11T21:18:46.691Z,18.48
2022-08-11T21:21:52.360Z,18.42
2022-08-11T21:24:59.363Z,18.37
2022-08-11T21:28:08.563Z,18.31
2022-08-11T21:31:14.677Z,18.26
2022-08-11T21:34:20.327Z,18.19
2022-08-11T21:37:26.455Z,18.15
2022-08-11T21:40:33.423Z,18.16
2022-08-11T21:43:40.422Z,18.12
2022-08-11T21:46:47.272Z,18.01
2022-08-11T21:49:54.057Z,17.97
2022-08-11T21:53:00.403Z,17.92
2022-08-11T21:56:05.508Z,17.85
2022-08-11T21:59:23.410Z,17.78
2022-08-11T22:02:29.173Z,17.75
2022-08-11T22:05:34.996Z,17.60
2022-08-11T22:08:39.231Z,17.63
2022-08-11T22:11:47.221Z,17.60
2022-08-11T22:14:55.720Z,17.58
2022-08-11T22:18:01.185Z,17.48
2022-08-11T22:21:07.277Z,17.40
2022-08-11T22:24:12.440Z,17.35
2022-08-11T22:27:24.430Z,17.29
2022-08-11T22:30:31.160Z,17.24
2022-08-11T22:33:42.071Z,17.20
2022-08-11T22:37:07.143Z,17.16
2022-08-11T22:40:13.213Z,17.09
2022-08-11T22:43:18.047Z,17.02
2022-08-11T22:46:25.025Z,16.97
2022-08-11T22:49:31.088Z,16.98
2022-08-11T22:52:55.932Z,16.87
2022-08-11T22:56:00.036Z,16.77
2022-08-11T22:59:06.323Z,16.67
2022-08-11T23:02:12.787Z,16.59
2022-08-11T23:05:18.518Z,16.56
2022-08-11T23:08:24.352Z,16.51
2022-08-11T23:11:33.115Z,16.43
2022-08-11T23:14:55.264Z,16.33
2022-08-11T23:18:01.560Z,16.26
2022-08-11T23:21:07.720Z,16.13
2022-08-11T23:24:12.523Z,16.03
2022-08-11T23:27:18.840Z,15.96
2022-08-11T23:30:24.683Z,15.80
2022-08-11T23:33:34.929Z,15.64
2022-08-11T23:36:47.386Z,15.65
2022-08-11T23:39:52.088Z,15.49
2022-08-11T23:42:56.822Z,15.45
2022-08-11T23:46:01.372Z,15.28
2022-08-11T23:49:11.996Z,15.33
2022-08-11T23:52:18.223Z,15.25
2022-08-11T23:55:23.042Z,15.02
2022-08-11T23:58:28.281Z,15.07
